Time;durP1;ratioP1;P1;durP2;ratioP2;P2;SDS_P1;SDS_P2;PMS_P1;PMS_P2;Temp;Humidity;BMP_temperature;BMP_pressure;BME280_temperature;BME280_humidity;BME280_pressure;Samples;Min_cycle;Max_cycle;Signal;HPM_P1;HPM_P2
2022/05/06 00:01:46;;;;;;;13.75;3.92;;;11.80;99.90;;;;;;5178557;28;19925;-77
2022/05/06 00:04:18;;;;;;;9.82;3.65;;;11.90;99.90;;;;;;5160692;28;20068;-77
2022/05/06 00:06:52;;;;;;;7.00;2.83;;;11.80;99.90;;;;;;5174557;28;20425;-77
2022/05/06 00:09:24;;;;;;;6.53;3.47;;;11.80;99.90;;;;;;5172825;28;20045;-76
2022/05/06 00:11:56;;;;;;;7.53;3.55;;;11.80;99.90;;;;;;5137850;28;20283;-77
2022/05/06 00:14:29;;;;;;;5.85;3.45;;;11.80;99.90;;;;;;5181406;28;20044;-77
2022/05/06 00:17:03;;;;;;;6.95;3.38;;;11.80;99.90;;;;;;5180672;28;20092;-76
2022/05/06 00:19:36;;;;;;;6.00;3.50;;;11.80;99.90;;;;;;5195602;28;20054;-76
2022/05/06 00:22:10;;;;;;;7.65;3.55;;;11.70;99.90;;;;;;5151333;28;20061;-76
2022/05/06 00:24:42;;;;;;;6.40;3.15;;;11.70;99.90;;;;;;5179217;28;20509;-76
2022/05/06 00:27:15;;;;;;;9.15;4.05;;;11.70;99.90;;;;;;5171255;28;20060;-76
2022/05/06 00:29:47;;;;;;;7.10;2.88;;;11.70;99.90;;;;;;5188008;28;20056;-76
2022/05/06 00:32:20;;;;;;;8.02;4.18;;;11.80;99.90;;;;;;5186719;28;20046;-76
2022/05/06 00:34:55;;;;;;;9.30;3.67;;;11.80;99.90;;;;;;5176198;28;20689;-77
2022/05/06 00:37:28;;;;;;;8.55;4.38;;;11.80;99.90;;;;;;5161887;28;20292;-76
2022/05/06 00:40:00;;;;;;;8.02;3.97;;;11.90;99.90;;;;;;5191018;28;20446;-77
2022/05/06 00:42:33;;;;;;;5.68;3.30;;;12.00;99.90;;;;;;5178829;28;20061;-76
2022/05/06 00:45:05;;;;;;;8.82;3.75;;;12.00;99.90;;;;;;5181003;28;20509;-76
2022/05/06 00:47:38;;;;;;;4.63;2.90;;;12.10;99.90;;;;;;5183692;28;20478;-77
2022/05/06 00:50:11;;;;;;;10.45;3.30;;;12.10;99.90;;;;;;5183030;28;20346;-76
2022/05/06 00:52:43;;;;;;;8.77;3.90;;;12.10;99.90;;;;;;5177673;28;20045;-77
2022/05/06 00:55:16;;;;;;;8.82;4.20;;;12.10;99.90;;;;;;5196183;28;20420;-75
2022/05/06 00:57:48;;;;;;;8.68;3.08;;;12.00;99.90;;;;;;5184226;28;20041;-76
2022/05/06 01:00:21;;;;;;;6.18;2.95;;;12.00;99.90;;;;;;5184643;28;20953;-75
2022/05/06 01:02:53;;;;;;;7.85;3.10;;;12.00;99.90;;;;;;5181258;28;20056;-75
2022/05/06 01:05:26;;;;;;;10.10;3.47;;;12.00;99.90;;;;;;5160566;28;20060;-75
2022/05/06 01:07:58;;;;;;;7.33;2.33;;;12.00;99.90;;;;;;5166864;28;20053;-75
2022/05/06 01:10:31;;;;;;;4.85;3.03;;;12.00;99.90;;;;;;5165992;28;20045;-75
2022/05/06 01:13:04;;;;;;;9.32;3.33;;;12.00;99.90;;;;;;5161756;28;20601;-76
2022/05/06 01:15:38;;;;;;;9.27;2.95;;;12.10;99.90;;;;;;5189417;28;20130;-76
2022/05/06 01:18:15;;;;;;;8.43;3.25;;;12.00;99.90;;;;;;5198031;28;20413;-76
2022/05/06 01:20:51;;;;;;;7.72;3.03;;;12.10;99.90;;;;;;5181209;28;20052;-75
2022/05/06 01:23:24;;;;;;;6.32;3.05;;;12.10;99.90;;;;;;5172238;28;20492;-76
2022/05/06 01:25:56;;;;;;;5.65;2.58;;;12.10;99.90;;;;;;5168573;28;20045;-76
2022/05/06 01:28:32;;;;;;;5.68;3.13;;;12.00;99.90;;;;;;5176562;28;20048;-75
2022/05/06 01:31:07;;;;;;;6.28;3.03;;;12.00;99.90;;;;;;5180089;28;20049;-76
2022/05/06 01:33:41;;;;;;;9.13;2.60;;;12.00;99.90;;;;;;5167792;28;20057;-75
2022/05/06 01:36:17;;;;;;;5.03;2.45;;;11.90;99.90;;;;;;5178168;28;20049;-76
2022/05/06 01:38:52;;;;;;;6.15;3.08;;;12.00;99.90;;;;;;5187792;28;20053;-75
2022/05/06 01:41:27;;;;;;;7.50;3.25;;;12.00;99.90;;;;;;5157484;28;20057;-76
2022/05/06 01:44:12;;;;;;;7.90;2.58;;;11.90;99.90;;;;;;5173162;28;20445;-75
2022/05/06 01:46:47;;;;;;;4.70;2.70;;;11.90;99.90;;;;;;5179029;28;20053;-75
2022/05/06 01:49:30;;;;;;;7.75;3.47;;;11.90;99.90;;;;;;5169946;28;21309;-75
2022/05/06 01:52:07;;;;;;;6.00;3.10;;;11.90;99.90;;;;;;5143763;28;20603;-75
2022/05/06 01:54:42;;;;;;;3.33;2.38;;;11.80;99.90;;;;;;5176964;28;20064;-75
2022/05/06 01:57:16;;;;;;;2.42;2.22;;;11.80;99.90;;;;;;5169484;28;20500;-76
2022/05/06 01:59:49;;;;;;;4.57;2.83;;;11.90;99.90;;;;;;5160848;28;20041;-75
2022/05/06 02:02:25;;;;;;;7.15;3.08;;;11.90;99.90;;;;;;5191650;28;20719;-75
2022/05/06 02:05:17;;;;;;;8.40;3.17;;;11.90;99.90;;;;;;5182167;28;20117;-75
2022/05/06 02:07:53;;;;;;;6.32;3.35;;;12.00;99.90;;;;;;5147431;28;20057;-75
2022/05/06 02:10:26;;;;;;;6.70;4.22;;;11.90;99.90;;;;;;5178755;28;20057;-75
2022/05/06 02:13:05;;;;;;;6.25;3.40;;;11.90;99.90;;;;;;5165017;28;20048;-75
2022/05/06 02:15:51;;;;;;;9.48;3.45;;;12.00;99.90;;;;;;5177243;28;20042;-75
2022/05/06 02:18:51;;;;;;;7.55;3.40;;;12.00;99.90;;;;;;5151843;28;20501;-76
2022/05/06 02:21:52;;;;;;;7.93;3.63;;;12.00;99.90;;;;;;5170609;28;20049;-76
2022/05/06 02:24:48;;;;;;;4.13;2.95;;;11.90;99.90;;;;;;5171781;28;20254;-75
2022/05/06 02:27:50;;;;;;;7.03;3.33;;;11.90;99.90;;;;;;5154734;28;20042;-75
2022/05/06 02:33:23;;;;;;;5.22;3.35;;;11.90;99.90;;;;;;5177117;28;20069;-75
2022/05/06 02:36:03;;;;;;;5.07;3.00;;;11.90;99.90;;;;;;5185926;28;20042;-76
2022/05/06 02:38:38;;;;;;;6.20;3.70;;;11.90;99.90;;;;;;5175386;28;20059;-75
2022/05/06 02:41:13;;;;;;;9.07;3.83;;;11.90;99.90;;;;;;5176116;28;20857;-75
2022/05/06 02:43:52;;;;;;;6.50;3.42;;;11.80;99.90;;;;;;5177373;28;20053;-75
2022/05/06 02:46:25;;;;;;;6.65;4.00;;;11.80;99.90;;;;;;5191782;28;20054;-76
2022/05/06 02:49:01;;;;;;;5.32;3.80;;;11.80;99.90;;;;;;5166269;28;20511;-76
2022/05/06 02:51:33;;;;;;;9.18;4.15;;;11.80;99.90;;;;;;5175730;28;20501;-77
2022/05/06 02:54:08;;;;;;;7.18;3.97;;;11.70;99.90;;;;;;5185998;28;20065;-76
2022/05/06 02:56:43;;;;;;;4.65;3.08;;;11.70;99.90;;;;;;5167806;28;20050;-76
2022/05/06 02:59:16;;;;;;;6.23;3.00;;;11.70;99.90;;;;;;5171104;28;20124;-76
2022/05/06 03:01:49;;;;;;;6.83;4.70;;;11.80;99.90;;;;;;5174537;28;20045;-76
2022/05/06 03:04:21;;;;;;;10.55;5.35;;;11.90;99.90;;;;;;5189721;28;20076;-76
2022/05/06 03:06:54;;;;;;;9.40;5.35;;;11.80;99.90;;;;;;5172408;28;20076;-76
2022/05/06 03:09:39;;;;;;;7.72;5.22;;;11.80;99.90;;;;;;5169078;28;20060;-76
2022/05/06 03:12:13;;;;;;;9.00;4.90;;;11.80;99.90;;;;;;5168501;28;20048;-75
2022/05/06 03:14:56;;;;;;;9.27;4.95;;;11.80;99.90;;;;;;5151793;28;20451;-75
2022/05/06 03:17:40;;;;;;;9.70;5.43;;;11.80;99.90;;;;;;5161740;28;20481;-75
2022/05/06 03:20:12;;;;;;;9.63;5.35;;;11.80;99.90;;;;;;5179828;28;20628;-75
2022/05/06 03:22:50;;;;;;;7.28;4.25;;;11.80;99.90;;;;;;5172613;28;20053;-75
2022/05/06 03:25:22;;;;;;;12.50;6.72;;;11.80;99.90;;;;;;5167051;28;20706;-75
2022/05/06 03:28:07;;;;;;;9.60;5.57;;;11.80;99.90;;;;;;5176945;28;20431;-76
2022/05/06 03:30:47;;;;;;;9.27;5.68;;;11.80;99.90;;;;;;5178265;28;20108;-76
2022/05/06 03:33:33;;;;;;;14.30;6.75;;;11.80;99.90;;;;;;5162923;28;20060;-75
2022/05/06 03:36:14;;;;;;;12.25;7.63;;;11.80;99.90;;;;;;5170706;28;20061;-75
2022/05/06 03:39:04;;;;;;;14.38;7.82;;;11.80;99.90;;;;;;5165969;28;20045;-75
2022/05/06 03:41:43;;;;;;;15.35;8.02;;;11.80;99.90;;;;;;5160012;28;20046;-75
2022/05/06 03:44:16;;;;;;;8.93;5.07;;;11.80;99.90;;;;;;5157250;28;20412;-76
2022/05/06 03:46:52;;;;;;;9.73;5.30;;;11.70;99.90;;;;;;5157965;28;20045;-76
2022/05/06 03:49:32;;;;;;;6.55;4.30;;;11.70;99.90;;;;;;5171122;28;20037;-75
2022/05/06 03:52:06;;;;;;;15.38;7.05;;;11.90;99.90;;;;;;5166894;28;20048;-75
2022/05/06 03:54:40;;;;;;;;;;;11.90;99.90;;;;;;5187076;28;20045;-74
2022/05/06 03:57:12;;;;;;;12.82;6.45;;;11.70;99.90;;;;;;5192155;28;20499;-75
2022/05/06 03:59:44;;;;;;;12.15;5.28;;;11.70;99.90;;;;;;5178134;28;20256;-74
2022/05/06 04:02:21;;;;;;;7.45;4.82;;;11.80;99.90;;;;;;5172318;28;20045;-75
2022/05/06 04:04:55;;;;;;;8.30;5.10;;;11.80;99.90;;;;;;5158559;28;20068;-75
2022/05/06 04:07:29;;;;;;;10.88;6.40;;;11.90;99.90;;;;;;5167796;28;20076;-75
2022/05/06 04:10:02;;;;;;;13.13;6.70;;;11.80;99.90;;;;;;5155665;28;20497;-75
2022/05/06 04:12:34;;;;;;;8.55;5.78;;;11.80;99.90;;;;;;5166355;28;20691;-75
2022/05/06 04:15:11;;;;;;;7.07;4.95;;;11.80;99.90;;;;;;5165887;28;20178;-74
2022/05/06 04:17:45;;;;;;;8.75;4.75;;;11.80;99.90;;;;;;5157471;28;20060;-75
2022/05/06 04:23:29;;;;;;;8.05;5.97;;;11.90;99.90;;;;;;5172336;28;20060;-75
2022/05/06 04:26:06;;;;;;;10.68;6.13;;;11.80;99.90;;;;;;5158914;28;20056;-75
2022/05/06 04:28:46;;;;;;;12.48;6.93;;;11.80;99.90;;;;;;5159976;28;20061;-75
2022/05/06 04:31:18;;;;;;;13.57;7.53;;;11.90;99.90;;;;;;5176559;28;20053;-75
2022/05/06 04:33:54;;;;;;;12.35;7.25;;;11.90;99.90;;;;;;5173600;28;20049;-75
2022/05/06 04:36:39;;;;;;;11.55;6.38;;;11.90;99.90;;;;;;5194550;28;20045;-75
2022/05/06 04:39:13;;;;;;;13.38;6.80;;;11.80;99.90;;;;;;5174697;28;20041;-74
2022/05/06 04:41:53;;;;;;;18.50;8.15;;;11.80;99.90;;;;;;5155663;28;20417;-75
2022/05/06 04:44:37;;;;;;;9.35;5.30;;;11.80;99.90;;;;;;5189051;28;20049;-75
2022/05/06 04:47:10;;;;;;;11.90;6.45;;;11.70;99.90;;;;;;5169561;28;22231;-75
2022/05/06 04:49:43;;;;;;;8.02;4.95;;;11.80;99.90;;;;;;5170270;28;20064;-75
2022/05/06 04:52:16;;;;;;;12.98;6.70;;;11.70;99.90;;;;;;5173263;28;20065;-75
2022/05/06 04:54:49;;;;;;;10.85;6.72;;;11.80;99.90;;;;;;5180574;28;20033;-75
2022/05/06 04:57:22;;;;;;;;;;;11.80;99.90;;;;;;5173741;28;20045;-75
2022/05/06 04:59:55;;;;;;;9.30;5.47;;;11.80;99.90;;;;;;5157475;28;19925;-75
2022/05/06 05:02:28;;;;;;;14.82;7.15;;;11.80;99.90;;;;;;5154256;28;20821;-74
2022/05/06 05:05:03;;;;;;;16.52;8.77;;;11.90;99.90;;;;;;5155891;28;20663;-75
2022/05/06 05:07:40;;;;;;;17.83;8.50;;;11.80;99.90;;;;;;5167979;28;20046;-74
2022/05/06 05:10:15;;;;;;;10.18;6.22;;;11.80;99.90;;;;;;5165749;28;20056;-75
2022/05/06 05:12:48;;;;;;;10.77;5.47;;;11.90;99.90;;;;;;5159192;28;20049;-75
2022/05/06 05:15:24;;;;;;;13.55;7.57;;;11.90;99.90;;;;;;5167431;28;20062;-73
2022/05/06 05:17:58;;;;;;;14.73;8.25;;;12.00;99.90;;;;;;5154948;28;20064;-75
2022/05/06 05:20:32;;;;;;;10.73;7.25;;;11.90;99.90;;;;;;5144230;28;20439;-75
2022/05/06 05:23:06;;;;;;;13.35;7.82;;;12.00;99.90;;;;;;5160429;28;20048;-74
2022/05/06 05:25:42;;;;;;;7.45;5.35;;;12.00;99.90;;;;;;5144781;28;20038;-75
2022/05/06 05:28:18;;;;;;;12.70;7.25;;;12.00;99.90;;;;;;5160696;28;20065;-75
2022/05/06 05:30:51;;;;;;;13.57;8.82;;;12.00;99.90;;;;;;5153465;28;20044;-75
2022/05/06 05:33:24;;;;;;;13.82;8.20;;;11.90;99.90;;;;;;5176423;28;20041;-74
2022/05/06 05:36:01;;;;;;;12.88;7.65;;;12.00;99.90;;;;;;5170457;28;20052;-76
2022/05/06 05:38:33;;;;;;;18.47;9.83;;;11.90;99.90;;;;;;5157234;28;20045;-75
2022/05/06 05:41:07;;;;;;;12.45;8.05;;;11.90;99.90;;;;;;5168125;28;20048;-75
2022/05/06 05:49:26;;;;;;;14.50;8.50;;;12.00;99.90;;;;;;5183156;28;20315;-75
2022/05/06 05:51:59;;;;;;;11.27;7.38;;;12.00;99.90;;;;;;5164347;28;20041;-75
2022/05/06 05:54:31;;;;;;;11.77;7.50;;;12.00;99.90;;;;;;5178031;28;20067;-75
2022/05/06 05:57:05;;;;;;;11.70;7.85;;;12.00;99.90;;;;;;5184829;28;20497;-75
2022/05/06 05:59:39;;;;;;;14.43;9.68;;;12.10;99.90;;;;;;5159107;28;20716;-74
2022/05/06 06:02:13;;;;;;;14.95;9.07;;;12.10;99.90;;;;;;5172955;28;20063;-73
2022/05/06 06:04:49;;;;;;;20.50;9.70;;;12.10;99.90;;;;;;5187107;28;20075;-75
2022/05/06 06:07:22;;;;;;;17.37;10.43;;;12.10;99.90;;;;;;5189828;28;20042;-75
2022/05/06 06:09:59;;;;;;;15.57;9.65;;;12.10;99.90;;;;;;5179826;28;20045;-74
2022/05/06 06:12:34;;;;;;;16.25;7.78;;;12.10;99.90;;;;;;5189623;28;20049;-74
2022/05/06 06:15:07;;;;;;;13.38;8.82;;;12.20;99.90;;;;;;5180868;28;20037;-74
2022/05/06 06:17:40;;;;;;;17.90;9.90;;;12.20;99.90;;;;;;5185255;28;20587;-73
2022/05/06 06:20:14;;;;;;;17.20;10.75;;;12.20;99.90;;;;;;5186523;28;20037;-75
2022/05/06 06:22:50;;;;;;;16.77;9.43;;;12.20;99.90;;;;;;5181454;28;20222;-75
2022/05/06 06:25:23;;;;;;;18.60;9.95;;;12.20;99.90;;;;;;5189608;28;20564;-73
2022/05/06 06:27:58;;;;;;;11.38;7.93;;;12.20;99.90;;;;;;5190310;28;20045;-74
2022/05/06 06:30:30;;;;;;;12.88;7.93;;;12.30;99.90;;;;;;5190368;28;20545;-76
2022/05/06 06:33:10;;;;;;;15.88;9.90;;;12.40;99.90;;;;;;5204776;28;20037;-75
2022/05/06 06:35:42;;;;;;;12.32;8.43;;;12.50;99.90;;;;;;5189417;28;20048;-74
2022/05/06 06:38:15;;;;;;;14.30;10.07;;;12.50;99.90;;;;;;5202665;28;20072;-74
2022/05/06 06:40:48;;;;;;;10.20;7.55;;;12.50;99.90;;;;;;5195164;28;20049;-74
2022/05/06 06:43:21;;;;;;;10.82;7.50;;;12.60;99.90;;;;;;5187375;28;20460;-74
2022/05/06 06:46:33;;;;;;;13.18;9.68;;;12.60;99.90;;;;;;5128353;28;20074;-74
2022/05/06 06:49:27;;;;;;;16.10;8.48;;;12.70;99.90;;;;;;5129165;28;20050;-74
2022/05/06 06:52:32;;;;;;;;;;;12.70;99.90;;;;;;5193865;28;20068;-75
2022/05/06 06:55:05;;;;;;;11.50;8.55;;;12.60;99.90;;;;;;5193043;28;19925;-76
2022/05/06 06:57:38;;;;;;;10.38;7.35;;;12.60;99.90;;;;;;5195827;23;20068;-78
2022/05/06 07:00:11;;;;;;;10.77;7.50;;;12.60;99.90;;;;;;5151147;28;20053;-75
2022/05/06 07:02:45;;;;;;;19.52;17.02;;;12.70;99.90;;;;;;5156061;28;20529;-77
2022/05/06 07:05:17;;;;;;;12.07;8.52;;;12.70;99.90;;;;;;5171246;28;20045;-75
2022/05/06 07:13:52;;;;;;;14.07;8.43;;;12.90;99.90;;;;;;5187501;28;20053;-78
2022/05/06 07:16:27;;;;;;;13.40;7.40;;;12.90;99.90;;;;;;5203485;28;20049;-75
2022/05/06 07:18:59;;;;;;;13.18;6.90;;;12.90;99.90;;;;;;5187999;28;20296;-76
2022/05/06 07:21:32;;;;;;;9.48;6.55;;;13.00;99.90;;;;;;5193321;28;20058;-75
2022/05/06 07:24:05;;;;;;;9.15;6.78;;;13.00;99.90;;;;;;5184526;28;20042;-75
2022/05/06 07:26:37;;;;;;;8.13;6.55;;;13.00;99.90;;;;;;5189949;28;20045;-75
2022/05/06 07:29:10;;;;;;;10.88;8.00;;;13.00;99.90;;;;;;5183567;28;20150;-76
2022/05/06 07:31:43;;;;;;;11.20;7.40;;;13.10;99.90;;;;;;5188390;28;20056;-75
2022/05/06 07:34:15;;;;;;;13.57;9.50;;;13.10;99.90;;;;;;5189856;28;20052;-76
2022/05/06 07:36:48;;;;;;;17.25;10.20;;;13.10;99.90;;;;;;5190909;28;20060;-76
2022/05/06 07:39:20;;;;;;;13.30;9.05;;;13.10;99.90;;;;;;5190834;28;20041;-77
2022/05/06 07:41:52;;;;;;;10.68;8.27;;;13.10;99.90;;;;;;5182821;28;20900;-74
2022/05/06 07:44:25;;;;;;;16.65;11.27;;;13.10;99.90;;;;;;5188911;28;20076;-77
2022/05/06 07:46:57;;;;;;;14.85;10.52;;;13.00;99.90;;;;;;5182900;28;20271;-75
2022/05/06 07:49:30;;;;;;;14.45;9.10;;;13.00;99.90;;;;;;5173193;28;20064;-75
2022/05/06 07:52:02;;;;;;;15.45;11.27;;;13.00;99.90;;;;;;5189309;28;20052;-76
2022/05/06 07:54:34;;;;;;;18.45;12.77;;;12.90;99.90;;;;;;5188076;28;20049;-74
2022/05/06 07:57:12;;;;;;;16.80;11.32;;;12.80;99.90;;;;;;5186326;28;20762;-74
2022/05/06 07:59:45;;;;;;;20.85;13.02;;;12.80;99.90;;;;;;5187897;28;20053;-76
2022/05/06 08:05:08;;;;;;;21.80;12.90;;;12.80;99.90;;;;;;5192372;28;20478;-74
2022/05/06 08:07:40;;;;;;;17.77;11.32;;;12.80;99.90;;;;;;5182622;28;20406;-75
2022/05/06 08:10:14;;;;;;;18.98;12.50;;;12.80;99.90;;;;;;5190681;28;20052;-75
2022/05/06 08:12:47;;;;;;;19.55;13.05;;;12.80;99.90;;;;;;5187274;28;20045;-75
2022/05/06 08:15:19;;;;;;;15.18;10.90;;;12.90;99.90;;;;;;5190429;28;20417;-74
2022/05/06 08:17:52;;;;;;;20.45;12.63;;;13.00;99.90;;;;;;5188323;28;20052;-75
2022/05/06 08:20:24;;;;;;;18.20;12.50;;;13.00;99.90;;;;;;5191118;28;20045;-77
2022/05/06 08:22:56;;;;;;;22.13;13.43;;;13.00;99.90;;;;;;5183775;28;20045;-77
2022/05/06 08:25:29;;;;;;;20.48;13.15;;;13.10;99.90;;;;;;5174505;28;20075;-75
2022/05/06 08:28:11;;;;;;;20.45;13.77;;;13.10;99.90;;;;;;5197425;28;20049;-76
2022/05/06 08:30:44;;;;;;;24.13;14.93;;;13.10;99.90;;;;;;5201274;28;20041;-75
2022/05/06 08:33:17;;;;;;;21.30;14.18;;;13.10;99.90;;;;;;5192900;28;20049;-75
2022/05/06 08:35:50;;;;;;;20.58;14.07;;;13.10;99.90;;;;;;5175983;28;20037;-76
2022/05/06 08:38:22;;;;;;;20.35;14.40;;;13.10;99.90;;;;;;5181877;28;20050;-76
2022/05/06 08:40:56;;;;;;;24.70;15.50;;;13.10;99.90;;;;;;5159290;28;20212;-75
2022/05/06 08:43:29;;;;;;;22.75;16.55;;;13.20;99.90;;;;;;5182993;28;20082;-75
2022/05/06 08:51:47;;;;;;;22.88;16.38;;;13.20;99.90;;;;;;5172500;28;20261;-77
2022/05/06 08:54:22;;;;;;;23.90;16.20;;;13.20;99.90;;;;;;5186038;28;20049;-77
2022/05/06 08:56:56;;;;;;;37.80;21.10;;;13.20;99.90;;;;;;5188196;28;20052;-77
2022/05/06 08:59:28;;;;;;;26.70;18.17;;;13.20;99.90;;;;;;5179126;28;20049;-76
2022/05/06 09:02:00;;;;;;;33.92;22.98;;;13.20;99.90;;;;;;5168930;28;20049;-74
2022/05/06 09:04:39;;;;;;;33.40;20.63;;;13.20;99.90;;;;;;5169762;28;20660;-76
2022/05/06 09:07:22;;;;;;;32.70;20.23;;;13.20;99.90;;;;;;5185187;28;20049;-75
2022/05/06 09:10:14;;;;;;;30.55;19.35;;;13.20;99.90;;;;;;5169474;28;20537;-77
2022/05/06 09:13:01;;;;;;;31.25;19.60;;;13.20;99.90;;;;;;5182490;28;20512;-75
2022/05/06 09:18:25;;;;;;;30.30;20.45;;;13.30;99.90;;;;;;5191631;28;20057;-76
2022/05/06 09:21:11;;;;;;;33.40;23.55;;;13.30;99.90;;;;;;5180466;28;20137;-77
2022/05/06 09:23:43;;;;;;;42.28;26.02;;;13.40;99.90;;;;;;5168512;28;20535;-77
2022/05/06 09:26:22;;;;;;;46.50;27.92;;;13.40;99.90;;;;;;5191859;28;20045;-76
2022/05/06 09:28:54;;;;;;;46.38;29.33;;;13.30;99.90;;;;;;5186882;28;20060;-76
2022/05/06 09:31:32;;;;;;;48.42;28.05;;;13.30;99.90;;;;;;5185155;28;20053;-77
2022/05/06 09:34:11;;;;;;;41.00;27.63;;;13.30;99.90;;;;;;5186769;28;20391;-77
2022/05/06 09:36:43;;;;;;;50.55;31.48;;;13.30;99.90;;;;;;5186533;28;20048;-77
2022/05/06 09:39:15;;;;;;;43.38;29.92;;;13.40;99.90;;;;;;5178115;28;20056;-77
2022/05/06 09:41:48;;;;;;;43.08;27.63;;;13.30;99.90;;;;;;5171111;28;20638;-74
2022/05/06 09:44:22;;;;;;;47.60;30.50;;;13.30;99.90;;;;;;5189448;28;20046;-75
2022/05/06 09:47:10;;;;;;;44.88;30.58;;;13.30;99.90;;;;;;5189944;28;20328;-77
2022/05/06 09:49:43;;;;;;;48.95;31.50;;;13.40;99.90;;;;;;5185331;28;20052;-76
2022/05/06 09:52:16;;;;;;;44.22;29.80;;;13.40;99.90;;;;;;5196409;28;20476;-77
2022/05/06 09:54:49;;;;;;;44.72;30.65;;;13.40;99.90;;;;;;5180150;28;20041;-77
2022/05/06 09:57:21;;;;;;;48.83;31.67;;;13.40;99.90;;;;;;5193736;28;20417;-76
2022/05/06 09:59:53;;;;;;;56.90;34.88;;;13.50;99.90;;;;;;5191084;28;20056;-78
2022/05/06 10:02:26;;;;;;;48.80;32.80;;;13.50;99.90;;;;;;5181289;28;20195;-77
2022/05/06 10:04:59;;;;;;;53.80;34.05;;;13.40;99.90;;;;;;5199274;28;20053;-76
2022/05/06 10:07:34;;;;;;;56.78;35.80;;;13.30;99.90;;;;;;5195902;28;20426;-77
2022/05/06 10:10:12;;;;;;;58.83;37.65;;;13.30;99.90;;;;;;5190260;28;20053;-75
2022/05/06 10:12:52;;;;;;;55.88;37.33;;;13.20;99.90;;;;;;5190283;28;20568;-77
2022/05/06 10:15:28;;;;;;;56.45;37.85;;;13.20;99.90;;;;;;5208259;28;20041;-75
2022/05/06 10:18:02;;;;;;;61.58;39.70;;;13.20;99.90;;;;;;5191672;28;20041;-75
2022/05/06 10:23:15;;;;;;;58.72;37.05;;;13.10;99.90;;;;;;5179239;28;21011;-76
2022/05/06 10:25:48;;;;;;;62.97;40.72;;;13.20;99.90;;;;;;5181719;28;20080;-75
2022/05/06 10:34:16;;;;;;;63.00;40.17;;;13.20;99.90;;;;;;5183456;28;20561;-74
2022/05/06 10:36:54;;;;;;;56.17;35.88;;;13.20;99.90;;;;;;5174821;28;20497;-77
2022/05/06 10:39:36;;;;;;;61.50;38.72;;;13.20;99.90;;;;;;5197891;28;20497;-77
2022/05/06 10:42:10;;;;;;;62.10;39.15;;;13.20;99.90;;;;;;5192664;28;20420;-77
2022/05/06 10:44:50;;;;;;;66.20;40.35;;;13.30;99.90;;;;;;5194323;28;20321;-77
2022/05/06 10:47:41;;;;;;;66.07;40.13;;;13.30;99.90;;;;;;5183724;28;20329;-74
2022/05/06 10:50:25;;;;;;;65.97;41.28;;;13.30;99.90;;;;;;5186731;28;20049;-76
2022/05/06 10:53:03;;;;;;;67.93;42.58;;;13.40;99.90;;;;;;5185819;28;20038;-76
2022/05/06 10:55:35;;;;;;;53.83;37.08;;;13.50;99.90;;;;;;5188868;28;20052;-76
2022/05/06 10:58:08;;;;;;;53.38;39.08;;;13.60;99.90;;;;;;5190414;28;20273;-77
2022/05/06 11:00:42;;;;;;;60.72;40.00;;;13.60;99.90;;;;;;5194597;28;20100;-75
2022/05/06 11:03:17;;;;;;;61.13;39.92;;;13.60;99.90;;;;;;5191726;28;20051;-75
2022/05/06 11:05:50;;;;;;;57.53;39.85;;;13.60;99.90;;;;;;5189033;28;20049;-76
2022/05/06 11:08:33;;;;;;;64.32;39.15;;;13.60;99.90;;;;;;5186969;28;20057;-75
2022/05/06 11:11:18;;;;;;;63.17;40.17;;;13.60;99.90;;;;;;5172016;28;20544;-75
2022/05/06 11:13:53;;;;;;;66.15;41.42;;;13.60;99.90;;;;;;5179649;28;20069;-76
2022/05/06 11:16:25;;;;;;;57.08;37.45;;;13.60;99.90;;;;;;5166025;28;20057;-73
2022/05/06 11:19:02;;;;;;;57.92;38.47;;;13.60;99.90;;;;;;5173478;28;20064;-77
2022/05/06 11:21:34;;;;;;;59.35;39.08;;;13.60;99.90;;;;;;5185425;28;20045;-78
2022/05/06 11:24:17;;;;;;;57.38;36.67;;;13.60;99.90;;;;;;5183783;28;20476;-77
2022/05/06 11:26:49;;;;;;;59.08;38.80;;;13.50;99.90;;;;;;5179590;28;20516;-77
2022/05/06 11:29:21;;;;;;;52.33;36.38;;;13.50;99.90;;;;;;5166069;28;20057;-78
2022/05/06 11:31:54;;;;;;;65.15;39.00;;;13.60;99.90;;;;;;5174800;28;20038;-77
2022/05/06 11:34:26;;;;;;;59.58;38.55;;;13.60;99.90;;;;;;5166201;28;20076;-77
2022/05/06 11:37:00;;;;;;;58.20;38.00;;;13.60;99.90;;;;;;5179506;28;20611;-77
2022/05/06 11:39:32;;;;;;;65.53;39.38;;;13.60;99.90;;;;;;5176355;28;20054;-76
2022/05/06 11:42:21;;;;;;;62.47;40.67;;;13.50;99.90;;;;;;5169825;28;21360;-77
2022/05/06 11:47:52;;;;;;;52.50;35.50;;;13.70;99.90;;;;;;5184789;28;20580;-78
2022/05/06 11:50:25;;;;;;;50.72;34.60;;;13.70;99.90;;;;;;5185203;28;20064;-77
2022/05/06 11:52:58;;;;;;;52.90;36.72;;;13.70;99.90;;;;;;5182395;28;20057;-77
2022/05/06 11:55:31;;;;;;;51.80;33.20;;;13.80;99.90;;;;;;5180776;28;20046;-77
2022/05/06 11:58:05;;;;;;;51.70;34.65;;;13.80;99.90;;;;;;5181595;28;20048;-77
2022/05/06 12:00:38;;;;;;;54.15;35.38;;;13.80;99.90;;;;;;5181543;28;20293;-78
2022/05/06 12:03:13;;;;;;;52.93;35.43;;;13.80;99.90;;;;;;5160436;28;20922;-74
2022/05/06 12:06:05;;;;;;;58.22;38.15;;;13.70;99.90;;;;;;5161118;28;20588;-76
2022/05/06 12:08:38;;;;;;;47.92;31.25;;;13.80;99.90;;;;;;5178926;28;20049;-78
2022/05/06 12:11:10;;;;;;;51.42;34.30;;;13.80;99.90;;;;;;5176605;28;20344;-77
2022/05/06 12:13:43;;;;;;;49.72;34.60;;;13.90;99.90;;;;;;5183566;28;20045;-77
2022/05/06 12:16:16;;;;;;;54.10;35.30;;;13.90;99.90;;;;;;5185591;28;20064;-76
2022/05/06 12:18:53;;;;;;;49.38;31.92;;;14.00;99.90;;;;;;5164174;28;20045;-75
2022/05/06 12:21:27;;;;;;;41.05;28.70;;;14.00;99.90;;;;;;5169817;28;20508;-77
2022/05/06 12:24:01;;;;;;;41.63;29.60;;;14.10;99.90;;;;;;5167509;28;20145;-77
2022/05/06 12:26:38;;;;;;;42.47;30.70;;;14.10;99.90;;;;;;5170212;28;20064;-76
2022/05/06 12:29:19;;;;;;;41.38;29.95;;;14.20;99.90;;;;;;5179146;28;20049;-74
2022/05/06 12:32:00;;;;;;;39.72;28.88;;;14.20;99.90;;;;;;5157153;28;20045;-75
2022/05/06 12:34:33;;;;;;;41.63;29.25;;;14.20;99.90;;;;;;5175900;28;20048;-76
2022/05/06 12:37:14;;;;;;;38.00;27.53;;;14.20;99.90;;;;;;5185255;28;20579;-77
2022/05/06 12:39:48;;;;;;;38.72;27.95;;;14.10;99.90;;;;;;5163971;28;20056;-75
2022/05/06 12:42:21;;;;;;;;;;;14.10;99.90;;;;;;5173608;28;20127;-76
2022/05/06 12:45:12;;;;;;;37.60;27.60;;;14.10;99.90;;;;;;5182733;28;20126;-75
2022/05/06 12:50:35;;;;;;;39.95;28.52;;;14.30;99.90;;;;;;5189906;28;20049;-77
2022/05/06 12:53:08;;;;;;;42.42;30.00;;;14.40;99.90;;;;;;5195643;28;20049;-75
2022/05/06 12:55:42;;;;;;;37.95;28.27;;;14.50;99.90;;;;;;5198251;28;20042;-75
2022/05/06 12:58:14;;;;;;;;;;;14.60;99.90;;;;;;5199658;28;20041;-76
2022/05/06 13:00:47;;;;;;;41.13;28.73;;;14.50;99.90;;;;;;5200861;28;19936;-75
2022/05/06 13:03:19;;;;;;;44.85;31.88;;;14.50;99.90;;;;;;5196958;28;20050;-76
2022/05/06 13:05:53;;;;;;;46.25;31.77;;;14.50;99.90;;;;;;5191228;28;20050;-77
2022/05/06 13:08:27;;;;;;;47.40;33.50;;;14.40;99.90;;;;;;5184026;28;20048;-77
2022/05/06 13:10:59;;;;;;;52.33;35.80;;;14.20;99.90;;;;;;5178738;28;20381;-77
2022/05/06 13:13:31;;;;;;;54.58;35.08;;;14.10;99.90;;;;;;5163834;28;20433;-79
2022/05/06 13:16:04;;;;;;;47.42;34.25;;;14.00;99.90;;;;;;5189920;28;20619;-77
2022/05/06 13:18:37;;;;;;;57.25;36.97;;;14.00;99.90;;;;;;5184833;28;20045;-77
2022/05/06 13:21:09;;;;;;;53.80;37.08;;;14.00;99.90;;;;;;5182315;28;20037;-78
2022/05/06 13:23:42;;;;;;;50.57;35.47;;;14.10;99.90;;;;;;5184559;28;20381;-76
2022/05/06 13:26:15;;;;;;;49.90;33.03;;;14.30;99.90;;;;;;5183163;28;20500;-75
2022/05/06 13:28:58;;;;;;;43.67;32.40;;;14.40;99.90;;;;;;5183396;28;20509;-74
2022/05/06 13:31:32;;;;;;;46.03;31.30;;;14.40;99.90;;;;;;5112627;28;20058;-70
2022/05/06 13:34:04;;;;;;;;;;;14.40;99.90;;;;;;5128035;28;20043;-70
2022/05/06 13:36:38;;;;;;;50.05;33.15;;;14.10;99.90;;;;;;5128427;28;19936;-71
2022/05/06 13:39:10;;;;;;;48.42;31.30;;;14.00;99.90;;;;;;5120769;28;20046;-73
2022/05/06 13:41:43;;;;;;;44.55;30.67;;;14.00;99.90;;;;;;5126194;28;20442;-70
2022/05/06 13:44:15;;;;;;;40.85;28.70;;;14.20;99.90;;;;;;5134174;23;20081;-84
2022/05/06 13:46:50;;;;;;;32.17;23.95;;;14.30;99.90;;;;;;5141522;28;20413;-82
2022/05/06 13:49:23;;;;;;;31.85;22.27;;;14.40;99.90;;;;;;5168791;28;20038;-80
2022/05/06 13:51:55;;;;;;;31.70;22.13;;;14.40;99.90;;;;;;5164141;28;20049;-82
2022/05/06 13:54:28;;;;;;;34.17;22.92;;;14.40;99.90;;;;;;5160008;28;20398;-83
2022/05/06 13:59:51;;;;;;;27.48;20.52;;;14.30;99.90;;;;;;5151715;28;20053;-81
2022/05/06 14:02:24;;;;;;;29.40;21.13;;;14.40;99.90;;;;;;5152621;28;21392;-80
2022/05/06 14:04:56;;;;;;;27.75;19.98;;;14.40;99.90;;;;;;5155000;28;20057;-82
2022/05/06 14:07:30;;;;;;;28.80;20.33;;;14.50;99.90;;;;;;5151880;28;20060;-82